sensor_id;sensor_type;location;lat;lon;timestamp;P1;durP1;ratioP1;P2;durP2;ratioP2
32790;SDS011;19143;59.322;14.502;2023-07-16T00:02:19;4.37;;;4.00;;
32790;SDS011;19143;59.322;14.502;2023-07-16T00:04:45;4.47;;;4.07;;
32790;SDS011;19143;59.322;14.502;2023-07-16T00:07:12;5.27;;;4.03;;
32790;SDS011;19143;59.322;14.502;2023-07-16T00:09:40;5.00;;;4.27;;
32790;SDS011;19143;59.322;14.502;2023-07-16T00:12:07;9.67;;;4.90;;
32790;SDS011;19143;59.322;14.502;2023-07-16T00:14:34;5.90;;;4.10;;
32790;SDS011;19143;59.322;14.502;2023-07-16T00:17:01;5.13;;;4.37;;
32790;SDS011;19143;59.322;14.502;2023-07-16T00:19:27;5.00;;;3.93;;
32790;SDS011;19143;59.322;14.502;2023-07-16T00:21:54;4.53;;;4.23;;
32790;SDS011;19143;59.322;14.502;2023-07-16T00:24:20;5.47;;;4.20;;
32790;SDS011;19143;59.322;14.502;2023-07-16T00:26:49;8.60;;;4.10;;
32790;SDS011;19143;59.322;14.502;2023-07-16T00:29:15;5.80;;;4.17;;
32790;SDS011;19143;59.322;14.502;2023-07-16T00:31:42;7.33;;;4.50;;
32790;SDS011;19143;59.322;14.502;2023-07-16T00:34:09;4.50;;;3.90;;
32790;SDS011;19143;59.322;14.502;2023-07-16T00:36:37;5.33;;;3.80;;
32790;SDS011;19143;59.322;14.502;2023-07-16T00:39:04;7.10;;;3.90;;
32790;SDS011;19143;59.322;14.502;2023-07-16T00:41:30;7.00;;;3.90;;
32790;SDS011;19143;59.322;14.502;2023-07-16T00:43:58;5.07;;;4.07;;
32790;SDS011;19143;59.322;14.502;2023-07-16T00:46:25;5.47;;;4.10;;
32790;SDS011;19143;59.322;14.502;2023-07-16T00:48:52;4.50;;;4.07;;
32790;SDS011;19143;59.322;14.502;2023-07-16T00:51:18;7.57;;;4.30;;
32790;SDS011;19143;59.322;14.502;2023-07-16T00:53:45;4.57;;;4.03;;
32790;SDS011;19143;59.322;14.502;2023-07-16T00:56:12;4.63;;;4.17;;
32790;SDS011;19143;59.322;14.502;2023-07-16T00:58:42;5.43;;;4.53;;
32790;SDS011;19143;59.322;14.502;2023-07-16T01:01:10;7.10;;;4.73;;
32790;SDS011;19143;59.322;14.502;2023-07-16T01:03:36;7.33;;;5.00;;
32790;SDS011;19143;59.322;14.502;2023-07-16T01:06:04;10.13;;;4.90;;
32790;SDS011;19143;59.322;14.502;2023-07-16T01:08:35;6.27;;;4.80;;
32790;SDS011;19143;59.322;14.502;2023-07-16T01:11:04;5.03;;;4.60;;
32790;SDS011;19143;59.322;14.502;2023-07-16T01:13:31;5.23;;;4.73;;
32790;SDS011;19143;59.322;14.502;2023-07-16T01:15:58;13.30;;;5.47;;
32790;SDS011;19143;59.322;14.502;2023-07-16T01:18:26;7.63;;;4.90;;
32790;SDS011;19143;59.322;14.502;2023-07-16T01:20:53;5.97;;;4.80;;
32790;SDS011;19143;59.322;14.502;2023-07-16T01:23:26;6.87;;;4.70;;
32790;SDS011;19143;59.322;14.502;2023-07-16T01:28:54;7.27;;;5.23;;
32790;SDS011;19143;59.322;14.502;2023-07-16T01:31:25;5.50;;;4.97;;
32790;SDS011;19143;59.322;14.502;2023-07-16T01:33:53;9.20;;;5.23;;
32790;SDS011;19143;59.322;14.502;2023-07-16T01:36:20;6.70;;;5.07;;
32790;SDS011;19143;59.322;14.502;2023-07-16T01:38:47;6.40;;;5.33;;
32790;SDS011;19143;59.322;14.502;2023-07-16T01:41:14;10.10;;;5.97;;
32790;SDS011;19143;59.322;14.502;2023-07-16T01:43:41;8.33;;;5.03;;
32790;SDS011;19143;59.322;14.502;2023-07-16T01:46:07;10.00;;;5.77;;
32790;SDS011;19143;59.322;14.502;2023-07-16T01:48:35;6.43;;;5.30;;
32790;SDS011;19143;59.322;14.502;2023-07-16T01:51:03;8.30;;;5.70;;
32790;SDS011;19143;59.322;14.502;2023-07-16T01:53:30;8.50;;;5.60;;
32790;SDS011;19143;59.322;14.502;2023-07-16T01:56:00;11.80;;;5.90;;
32790;SDS011;19143;59.322;14.502;2023-07-16T01:58:27;8.60;;;6.00;;
32790;SDS011;19143;59.322;14.502;2023-07-16T02:00:53;6.23;;;5.30;;
32790;SDS011;19143;59.322;14.502;2023-07-16T02:03:20;7.43;;;5.57;;
32790;SDS011;19143;59.322;14.502;2023-07-16T02:05:48;10.03;;;5.80;;
32790;SDS011;19143;59.322;14.502;2023-07-16T02:08:16;7.40;;;5.33;;
32790;SDS011;19143;59.322;14.502;2023-07-16T02:10:42;8.80;;;5.57;;
32790;SDS011;19143;59.322;14.502;2023-07-16T02:13:09;7.90;;;5.97;;
32790;SDS011;19143;59.322;14.502;2023-07-16T02:15:35;7.77;;;5.97;;
32790;SDS011;19143;59.322;14.502;2023-07-16T02:18:03;9.00;;;6.00;;
32790;SDS011;19143;59.322;14.502;2023-07-16T02:20:30;6.43;;;5.30;;
32790;SDS011;19143;59.322;14.502;2023-07-16T02:22:59;7.13;;;5.87;;
32790;SDS011;19143;59.322;14.502;2023-07-16T02:25:25;10.27;;;6.00;;
32790;SDS011;19143;59.322;14.502;2023-07-16T02:27:52;9.13;;;6.00;;
32790;SDS011;19143;59.322;14.502;2023-07-16T02:30:18;8.53;;;5.73;;
32790;SDS011;19143;59.322;14.502;2023-07-16T02:32:45;8.93;;;5.77;;
32790;SDS011;19143;59.322;14.502;2023-07-16T02:35:12;7.40;;;5.27;;
32790;SDS011;19143;59.322;14.502;2023-07-16T02:37:38;8.60;;;5.33;;
32790;SDS011;19143;59.322;14.502;2023-07-16T02:40:08;7.47;;;5.23;;
32790;SDS011;19143;59.322;14.502;2023-07-16T02:42:35;9.90;;;5.17;;
32790;SDS011;19143;59.322;14.502;2023-07-16T02:45:01;5.87;;;5.37;;
32790;SDS011;19143;59.322;14.502;2023-07-16T02:47:28;6.03;;;5.23;;
32790;SDS011;19143;59.322;14.502;2023-07-16T02:49:54;10.07;;;5.73;;
32790;SDS011;19143;59.322;14.502;2023-07-16T02:52:21;11.43;;;5.37;;
32790;SDS011;19143;59.322;14.502;2023-07-16T02:54:47;7.60;;;5.70;;
32790;SDS011;19143;59.322;14.502;2023-07-16T02:57:16;7.67;;;5.27;;
32790;SDS011;19143;59.322;14.502;2023-07-16T02:59:42;9.40;;;5.90;;
32790;SDS011;19143;59.322;14.502;2023-07-16T03:02:09;7.50;;;5.40;;
32790;SDS011;19143;59.322;14.502;2023-07-16T03:04:35;10.60;;;5.40;;
32790;SDS011;19143;59.322;14.502;2023-07-16T03:07:02;8.37;;;5.60;;
32790;SDS011;19143;59.322;14.502;2023-07-16T03:09:29;10.47;;;5.90;;
32790;SDS011;19143;59.322;14.502;2023-07-16T03:11:55;6.80;;;5.67;;
32790;SDS011;19143;59.322;14.502;2023-07-16T03:14:23;9.63;;;5.40;;
32790;SDS011;19143;59.322;14.502;2023-07-16T03:16:50;5.93;;;5.37;;
32790;SDS011;19143;59.322;14.502;2023-07-16T03:19:17;6.07;;;5.50;;
32790;SDS011;19143;59.322;14.502;2023-07-16T03:21:43;12.93;;;5.60;;
32790;SDS011;19143;59.322;14.502;2023-07-16T03:24:11;6.87;;;5.40;;
32790;SDS011;19143;59.322;14.502;2023-07-16T03:26:37;8.30;;;5.77;;
32790;SDS011;19143;59.322;14.502;2023-07-16T03:29:04;6.70;;;5.80;;
32790;SDS011;19143;59.322;14.502;2023-07-16T03:31:32;9.20;;;5.77;;
32790;SDS011;19143;59.322;14.502;2023-07-16T03:33:59;10.83;;;5.73;;
32790;SDS011;19143;59.322;14.502;2023-07-16T03:36:25;11.33;;;5.90;;
32790;SDS011;19143;59.322;14.502;2023-07-16T03:38:52;15.77;;;6.10;;
32790;SDS011;19143;59.322;14.502;2023-07-16T03:41:18;8.03;;;5.63;;
32790;SDS011;19143;59.322;14.502;2023-07-16T03:43:45;7.03;;;5.83;;
32790;SDS011;19143;59.322;14.502;2023-07-16T03:46:12;7.33;;;5.93;;
32790;SDS011;19143;59.322;14.502;2023-07-16T03:48:40;6.80;;;5.73;;
32790;SDS011;19143;59.322;14.502;2023-07-16T03:51:13;10.70;;;5.80;;
32790;SDS011;19143;59.322;14.502;2023-07-16T03:53:39;6.23;;;5.40;;
32790;SDS011;19143;59.322;14.502;2023-07-16T03:56:06;6.30;;;5.63;;
32790;SDS011;19143;59.322;14.502;2023-07-16T03:58:32;6.80;;;5.97;;
32790;SDS011;19143;59.322;14.502;2023-07-16T04:00:59;7.83;;;5.80;;
32790;SDS011;19143;59.322;14.502;2023-07-16T04:03:26;8.90;;;5.57;;
32790;SDS011;19143;59.322;14.502;2023-07-16T04:06:01;5.47;;;4.97;;
32790;SDS011;19143;59.322;14.502;2023-07-16T04:08:28;6.77;;;5.50;;
32790;SDS011;19143;59.322;14.502;2023-07-16T04:10:55;6.57;;;5.20;;
32790;SDS011;19143;59.322;14.502;2023-07-16T04:13:21;5.40;;;4.90;;
32790;SDS011;19143;59.322;14.502;2023-07-16T04:15:48;6.97;;;4.90;;
32790;SDS011;19143;59.322;14.502;2023-07-16T04:18:15;13.87;;;5.10;;
32790;SDS011;19143;59.322;14.502;2023-07-16T04:20:41;7.00;;;5.10;;
32790;SDS011;19143;59.322;14.502;2023-07-16T04:23:09;6.50;;;4.93;;
32790;SDS011;19143;59.322;14.502;2023-07-16T04:25:36;8.23;;;5.53;;
32790;SDS011;19143;59.322;14.502;2023-07-16T04:28:03;9.93;;;5.63;;
32790;SDS011;19143;59.322;14.502;2023-07-16T04:30:30;6.00;;;5.40;;
32790;SDS011;19143;59.322;14.502;2023-07-16T04:32:56;6.53;;;5.37;;
32790;SDS011;19143;59.322;14.502;2023-07-16T04:35:23;7.43;;;5.60;;
32790;SDS011;19143;59.322;14.502;2023-07-16T04:37:50;6.03;;;5.50;;
32790;SDS011;19143;59.322;14.502;2023-07-16T04:40:18;6.80;;;6.10;;
32790;SDS011;19143;59.322;14.502;2023-07-16T04:42:44;6.10;;;5.47;;
32790;SDS011;19143;59.322;14.502;2023-07-16T04:45:11;11.70;;;5.70;;
32790;SDS011;19143;59.322;14.502;2023-07-16T04:47:38;11.73;;;6.10;;
32790;SDS011;19143;59.322;14.502;2023-07-16T04:50:11;9.07;;;6.13;;
32790;SDS011;19143;59.322;14.502;2023-07-16T04:52:38;7.70;;;6.10;;
32790;SDS011;19143;59.322;14.502;2023-07-16T04:55:05;6.80;;;6.07;;
32790;SDS011;19143;59.322;14.502;2023-07-16T04:57:33;6.50;;;5.90;;
32790;SDS011;19143;59.322;14.502;2023-07-16T05:00:00;10.43;;;6.40;;
32790;SDS011;19143;59.322;14.502;2023-07-16T05:02:27;6.43;;;5.87;;
32790;SDS011;19143;59.322;14.502;2023-07-16T05:04:54;13.63;;;6.00;;
32790;SDS011;19143;59.322;14.502;2023-07-16T05:07:20;8.13;;;5.87;;
32790;SDS011;19143;59.322;14.502;2023-07-16T05:09:47;6.87;;;5.80;;
32790;SDS011;19143;59.322;14.502;2023-07-16T05:12:14;9.00;;;6.30;;
32790;SDS011;19143;59.322;14.502;2023-07-16T05:14:45;6.83;;;5.77;;
32790;SDS011;19143;59.322;14.502;2023-07-16T05:17:12;6.47;;;5.57;;
32790;SDS011;19143;59.322;14.502;2023-07-16T05:19:39;7.83;;;5.77;;
32790;SDS011;19143;59.322;14.502;2023-07-16T05:22:06;8.47;;;6.00;;
32790;SDS011;19143;59.322;14.502;2023-07-16T05:24:32;6.53;;;5.80;;
32790;SDS011;19143;59.322;14.502;2023-07-16T05:26:59;7.03;;;5.90;;
32790;SDS011;19143;59.322;14.502;2023-07-16T05:29:26;6.80;;;6.17;;
32790;SDS011;19143;59.322;14.502;2023-07-16T05:31:54;8.60;;;6.27;;
32790;SDS011;19143;59.322;14.502;2023-07-16T05:34:20;9.13;;;5.93;;
32790;SDS011;19143;59.322;14.502;2023-07-16T05:36:47;9.40;;;6.53;;
32790;SDS011;19143;59.322;14.502;2023-07-16T05:39:14;7.97;;;6.50;;
32790;SDS011;19143;59.322;14.502;2023-07-16T05:41:40;12.57;;;6.70;;
32790;SDS011;19143;59.322;14.502;2023-07-16T05:44:07;7.47;;;6.27;;
32790;SDS011;19143;59.322;14.502;2023-07-16T05:46:34;12.33;;;7.10;;
32790;SDS011;19143;59.322;14.502;2023-07-16T05:49:02;11.73;;;6.40;;
32790;SDS011;19143;59.322;14.502;2023-07-16T05:51:28;7.37;;;6.60;;
32790;SDS011;19143;59.322;14.502;2023-07-16T05:53:55;9.27;;;6.13;;
32790;SDS011;19143;59.322;14.502;2023-07-16T05:56:22;7.40;;;6.60;;
32790;SDS011;19143;59.322;14.502;2023-07-16T05:58:48;8.30;;;6.27;;
32790;SDS011;19143;59.322;14.502;2023-07-16T06:01:15;8.20;;;6.67;;
32790;SDS011;19143;59.322;14.502;2023-07-16T06:03:41;9.40;;;6.67;;
32790;SDS011;19143;59.322;14.502;2023-07-16T06:06:09;7.87;;;6.47;;
32790;SDS011;19143;59.322;14.502;2023-07-16T06:08:36;7.03;;;6.13;;
32790;SDS011;19143;59.322;14.502;2023-07-16T06:11:03;8.07;;;6.80;;
32790;SDS011;19143;59.322;14.502;2023-07-16T06:13:29;13.30;;;6.83;;
32790;SDS011;19143;59.322;14.502;2023-07-16T06:15:56;11.70;;;6.57;;
32790;SDS011;19143;59.322;14.502;2023-07-16T06:18:22;7.37;;;6.67;;
32790;SDS011;19143;59.322;14.502;2023-07-16T06:20:49;8.60;;;6.77;;
32790;SDS011;19143;59.322;14.502;2023-07-16T06:23:18;8.40;;;6.20;;
32790;SDS011;19143;59.322;14.502;2023-07-16T06:25:45;7.50;;;5.73;;
32790;SDS011;19143;59.322;14.502;2023-07-16T06:28:13;8.67;;;6.20;;
32790;SDS011;19143;59.322;14.502;2023-07-16T06:30:40;6.83;;;5.97;;
32790;SDS011;19143;59.322;14.502;2023-07-16T06:33:07;10.97;;;6.20;;
32790;SDS011;19143;59.322;14.502;2023-07-16T06:35:33;7.00;;;6.10;;
32790;SDS011;19143;59.322;14.502;2023-07-16T06:38:00;6.30;;;5.60;;
32790;SDS011;19143;59.322;14.502;2023-07-16T06:40:29;6.23;;;5.70;;
32790;SDS011;19143;59.322;14.502;2023-07-16T06:42:56;6.63;;;5.93;;
32790;SDS011;19143;59.322;14.502;2023-07-16T06:45:22;7.17;;;5.60;;
32790;SDS011;19143;59.322;14.502;2023-07-16T06:47:49;5.93;;;5.30;;
32790;SDS011;19143;59.322;14.502;2023-07-16T06:50:16;8.87;;;5.67;;
32790;SDS011;19143;59.322;14.502;2023-07-16T06:52:43;6.57;;;5.27;;
32790;SDS011;19143;59.322;14.502;2023-07-16T06:55:09;5.40;;;4.90;;
32790;SDS011;19143;59.322;14.502;2023-07-16T06:57:38;7.80;;;4.97;;
32790;SDS011;19143;59.322;14.502;2023-07-16T07:00:05;6.07;;;4.63;;
32790;SDS011;19143;59.322;14.502;2023-07-16T07:02:35;4.43;;;4.10;;
32790;SDS011;19143;59.322;14.502;2023-07-16T07:05:02;5.30;;;4.10;;
32790;SDS011;19143;59.322;14.502;2023-07-16T07:07:29;4.33;;;4.03;;
32790;SDS011;19143;59.322;14.502;2023-07-16T07:09:56;6.30;;;4.13;;
32790;SDS011;19143;59.322;14.502;2023-07-16T07:12:23;4.23;;;3.63;;
32790;SDS011;19143;59.322;14.502;2023-07-16T07:14:51;5.40;;;3.50;;
32790;SDS011;19143;59.322;14.502;2023-07-16T07:17:17;4.20;;;3.80;;
32790;SDS011;19143;59.322;14.502;2023-07-16T07:19:44;4.07;;;3.77;;
32790;SDS011;19143;59.322;14.502;2023-07-16T07:22:11;5.00;;;3.80;;
32790;SDS011;19143;59.322;14.502;2023-07-16T07:24:37;4.60;;;3.57;;
32790;SDS011;19143;59.322;14.502;2023-07-16T07:27:04;6.17;;;3.80;;
32790;SDS011;19143;59.322;14.502;2023-07-16T07:29:31;6.17;;;3.80;;
32790;SDS011;19143;59.322;14.502;2023-07-16T07:31:59;4.37;;;3.93;;
32790;SDS011;19143;59.322;14.502;2023-07-16T07:34:26;10.37;;;4.37;;
32790;SDS011;19143;59.322;14.502;2023-07-16T07:36:52;5.77;;;4.03;;
32790;SDS011;19143;59.322;14.502;2023-07-16T07:39:19;4.77;;;3.60;;
32790;SDS011;19143;59.322;14.502;2023-07-16T07:41:46;8.00;;;3.70;;
32790;SDS011;19143;59.322;14.502;2023-07-16T07:44:13;4.13;;;3.87;;
32790;SDS011;19143;59.322;14.502;2023-07-16T07:46:40;4.47;;;4.13;;
32790;SDS011;19143;59.322;14.502;2023-07-16T07:49:08;6.40;;;4.43;;
32790;SDS011;19143;59.322;14.502;2023-07-16T07:51:34;4.20;;;3.80;;
32790;SDS011;19143;59.322;14.502;2023-07-16T07:54:01;4.33;;;4.00;;
32790;SDS011;19143;59.322;14.502;2023-07-16T07:56:29;5.67;;;3.93;;
32790;SDS011;19143;59.322;14.502;2023-07-16T07:58:56;4.50;;;3.67;;
32790;SDS011;19143;59.322;14.502;2023-07-16T08:01:23;3.63;;;3.43;;
32790;SDS011;19143;59.322;14.502;2023-07-16T08:03:50;7.00;;;3.47;;
32790;SDS011;19143;59.322;14.502;2023-07-16T08:06:18;3.83;;;3.30;;
32790;SDS011;19143;59.322;14.502;2023-07-16T08:08:44;3.33;;;3.10;;
32790;SDS011;19143;59.322;14.502;2023-07-16T08:11:11;5.63;;;3.60;;
32790;SDS011;19143;59.322;14.502;2023-07-16T08:13:39;5.67;;;3.33;;
32790;SDS011;19143;59.322;14.502;2023-07-16T08:16:06;3.70;;;3.40;;
32790;SDS011;19143;59.322;14.502;2023-07-16T08:18:34;3.70;;;3.40;;
32790;SDS011;19143;59.322;14.502;2023-07-16T08:21:01;3.70;;;3.33;;
32790;SDS011;19143;59.322;14.502;2023-07-16T08:23:29;3.93;;;3.63;;
32790;SDS011;19143;59.322;14.502;2023-07-16T08:25:56;4.50;;;3.53;;
32790;SDS011;19143;59.322;14.502;2023-07-16T08:28:22;7.67;;;3.53;;
32790;SDS011;19143;59.322;14.502;2023-07-16T08:30:49;4.30;;;3.80;;
32790;SDS011;19143;59.322;14.502;2023-07-16T08:33:16;5.20;;;3.47;;
32790;SDS011;19143;59.322;14.502;2023-07-16T08:35:43;6.60;;;4.00;;
32790;SDS011;19143;59.322;14.502;2023-07-16T08:38:09;4.13;;;3.40;;
32790;SDS011;19143;59.322;14.502;2023-07-16T08:40:37;3.53;;;3.33;;
32790;SDS011;19143;59.322;14.502;2023-07-16T08:43:03;3.67;;;3.40;;
32790;SDS011;19143;59.322;14.502;2023-07-16T08:45:31;3.90;;;3.60;;
32790;SDS011;19143;59.322;14.502;2023-07-16T08:48:03;3.77;;;3.30;;
32790;SDS011;19143;59.322;14.502;2023-07-16T08:50:30;4.77;;;3.37;;
32790;SDS011;19143;59.322;14.502;2023-07-16T08:52:57;3.67;;;3.37;;
32790;SDS011;19143;59.322;14.502;2023-07-16T08:55:24;3.97;;;3.57;;
32790;SDS011;19143;59.322;14.502;2023-07-16T08:57:52;4.20;;;3.80;;
32790;SDS011;19143;59.322;14.502;2023-07-16T09:00:19;10.50;;;4.17;;
32790;SDS011;19143;59.322;14.502;2023-07-16T09:02:47;4.20;;;3.90;;
32790;SDS011;19143;59.322;14.502;2023-07-16T09:05:15;4.10;;;3.80;;
32790;SDS011;19143;59.322;14.502;2023-07-16T09:07:41;3.40;;;3.20;;
32790;SDS011;19143;59.322;14.502;2023-07-16T09:10:11;6.03;;;4.70;;
32790;SDS011;19143;59.322;14.502;2023-07-16T09:12:41;4.10;;;3.70;;
32790;SDS011;19143;59.322;14.502;2023-07-16T09:15:10;4.17;;;3.70;;
32790;SDS011;19143;59.322;14.502;2023-07-16T09:17:37;8.07;;;3.67;;
32790;SDS011;19143;59.322;14.502;2023-07-16T09:20:07;5.47;;;3.20;;
32790;SDS011;19143;59.322;14.502;2023-07-16T09:22:34;5.77;;;3.70;;
32790;SDS011;19143;59.322;14.502;2023-07-16T09:25:00;4.00;;;3.70;;
32790;SDS011;19143;59.322;14.502;2023-07-16T09:27:30;3.60;;;3.30;;
32790;SDS011;19143;59.322;14.502;2023-07-16T09:29:57;6.07;;;3.30;;
32790;SDS011;19143;59.322;14.502;2023-07-16T09:32:33;3.67;;;3.30;;
32790;SDS011;19143;59.322;14.502;2023-07-16T09:35:00;4.60;;;3.60;;
32790;SDS011;19143;59.322;14.502;2023-07-16T09:37:27;6.40;;;3.40;;
32790;SDS011;19143;59.322;14.502;2023-07-16T09:39:54;3.50;;;3.20;;
32790;SDS011;19143;59.322;14.502;2023-07-16T09:42:21;4.77;;;3.10;;
32790;SDS011;19143;59.322;14.502;2023-07-16T09:44:48;4.23;;;3.30;;
32790;SDS011;19143;59.322;14.502;2023-07-16T09:47:15;3.80;;;2.83;;
32790;SDS011;19143;59.322;14.502;2023-07-16T09:49:43;2.83;;;2.63;;
32790;SDS011;19143;59.322;14.502;2023-07-16T09:52:11;3.47;;;2.30;;
32790;SDS011;19143;59.322;14.502;2023-07-16T09:54:39;2.70;;;2.60;;
32790;SDS011;19143;59.322;14.502;2023-07-16T09:57:06;2.53;;;2.43;;
32790;SDS011;19143;59.322;14.502;2023-07-16T09:59:34;2.73;;;2.43;;
32790;SDS011;19143;59.322;14.502;2023-07-16T10:02:01;2.60;;;2.50;;
32790;SDS011;19143;59.322;14.502;2023-07-16T10:04:36;4.20;;;2.47;;
32790;SDS011;19143;59.322;14.502;2023-07-16T10:07:04;3.97;;;2.40;;
32790;SDS011;19143;59.322;14.502;2023-07-16T10:09:32;4.87;;;2.10;;
32790;SDS011;19143;59.322;14.502;2023-07-16T10:12:07;2.63;;;2.17;;
32790;SDS011;19143;59.322;14.502;2023-07-16T10:14:38;3.20;;;2.27;;
32790;SDS011;19143;59.322;14.502;2023-07-16T10:17:05;2.20;;;2.00;;
32790;SDS011;19143;59.322;14.502;2023-07-16T10:19:34;4.10;;;2.63;;
32790;SDS011;19143;59.322;14.502;2023-07-16T10:22:01;2.60;;;2.10;;
32790;SDS011;19143;59.322;14.502;2023-07-16T10:24:29;3.43;;;2.23;;
32790;SDS011;19143;59.322;14.502;2023-07-16T10:26:56;2.50;;;2.30;;
32790;SDS011;19143;59.322;14.502;2023-07-16T10:29:23;2.33;;;2.17;;
32790;SDS011;19143;59.322;14.502;2023-07-16T10:31:50;3.10;;;1.80;;
32790;SDS011;19143;59.322;14.502;2023-07-16T10:34:16;8.40;;;2.67;;
32790;SDS011;19143;59.322;14.502;2023-07-16T10:36:43;2.13;;;1.93;;
32790;SDS011;19143;59.322;14.502;2023-07-16T10:39:09;4.90;;;2.03;;
32790;SDS011;19143;59.322;14.502;2023-07-16T10:41:37;7.50;;;2.60;;
32790;SDS011;19143;59.322;14.502;2023-07-16T10:44:04;4.27;;;2.40;;
32790;SDS011;19143;59.322;14.502;2023-07-16T10:46:34;11.17;;;2.37;;
32790;SDS011;19143;59.322;14.502;2023-07-16T10:49:01;6.20;;;2.20;;
32790;SDS011;19143;59.322;14.502;2023-07-16T10:51:27;4.37;;;2.00;;
32790;SDS011;19143;59.322;14.502;2023-07-16T10:53:55;3.13;;;2.20;;
32790;SDS011;19143;59.322;14.502;2023-07-16T10:56:21;2.30;;;1.90;;
32790;SDS011;19143;59.322;14.502;2023-07-16T10:58:50;2.90;;;1.97;;
32790;SDS011;19143;59.322;14.502;2023-07-16T11:01:16;3.63;;;1.90;;
32790;SDS011;19143;59.322;14.502;2023-07-16T11:03:43;4.23;;;2.23;;
32790;SDS011;19143;59.322;14.502;2023-07-16T11:06:10;6.07;;;2.10;;
32790;SDS011;19143;59.322;14.502;2023-07-16T11:08:37;3.60;;;2.10;;
32790;SDS011;19143;59.322;14.502;2023-07-16T11:11:03;2.13;;;1.70;;
32790;SDS011;19143;59.322;14.502;2023-07-16T11:13:31;2.43;;;2.23;;
32790;SDS011;19143;59.322;14.502;2023-07-16T11:16:07;1.97;;;1.83;;
32790;SDS011;19143;59.322;14.502;2023-07-16T11:18:34;14.40;;;2.10;;
32790;SDS011;19143;59.322;14.502;2023-07-16T11:21:01;8.40;;;2.10;;
32790;SDS011;19143;59.322;14.502;2023-07-16T11:23:29;2.17;;;2.07;;
32790;SDS011;19143;59.322;14.502;2023-07-16T11:25:56;8.13;;;2.00;;
32790;SDS011;19143;59.322;14.502;2023-07-16T11:28:23;7.60;;;2.37;;
32790;SDS011;19143;59.322;14.502;2023-07-16T11:30:49;3.60;;;2.30;;
32790;SDS011;19143;59.322;14.502;2023-07-16T11:33:18;2.77;;;2.20;;
32790;SDS011;19143;59.322;14.502;2023-07-16T11:35:44;6.43;;;2.20;;
32790;SDS011;19143;59.322;14.502;2023-07-16T11:38:14;7.37;;;2.40;;
32790;SDS011;19143;59.322;14.502;2023-07-16T11:40:41;3.47;;;2.00;;
32790;SDS011;19143;59.322;14.502;2023-07-16T11:43:08;5.33;;;2.40;;
32790;SDS011;19143;59.322;14.502;2023-07-16T11:45:34;1.73;;;1.63;;
32790;SDS011;19143;59.322;14.502;2023-07-16T11:48:01;2.93;;;1.73;;
32790;SDS011;19143;59.322;14.502;2023-07-16T11:50:29;2.97;;;2.30;;
32790;SDS011;19143;59.322;14.502;2023-07-16T11:53:00;5.10;;;2.27;;
32790;SDS011;19143;59.322;14.502;2023-07-16T11:55:28;7.10;;;2.00;;
32790;SDS011;19143;59.322;14.502;2023-07-16T11:57:54;4.10;;;1.80;;
32790;SDS011;19143;59.322;14.502;2023-07-16T12:00:22;2.67;;;1.90;;
32790;SDS011;19143;59.322;14.502;2023-07-16T12:02:48;4.30;;;1.87;;
32790;SDS011;19143;59.322;14.502;2023-07-16T12:05:17;2.43;;;2.23;;
32790;SDS011;19143;59.322;14.502;2023-07-16T12:07:45;4.63;;;1.90;;
32790;SDS011;19143;59.322;14.502;2023-07-16T12:10:12;5.17;;;2.13;;
32790;SDS011;19143;59.322;14.502;2023-07-16T12:12:39;4.23;;;2.43;;
32790;SDS011;19143;59.322;14.502;2023-07-16T12:15:06;2.83;;;1.80;;
32790;SDS011;19143;59.322;14.502;2023-07-16T12:17:33;6.93;;;2.20;;
32790;SDS011;19143;59.322;14.502;2023-07-16T12:20:00;6.07;;;2.10;;
32790;SDS011;19143;59.322;14.502;2023-07-16T12:22:26;4.33;;;2.00;;
32790;SDS011;19143;59.322;14.502;2023-07-16T12:24:55;2.17;;;2.00;;
32790;SDS011;19143;59.322;14.502;2023-07-16T12:27:21;3.63;;;2.20;;
32790;SDS011;19143;59.322;14.502;2023-07-16T12:29:48;4.20;;;2.03;;
32790;SDS011;19143;59.322;14.502;2023-07-16T12:32:15;2.20;;;2.00;;
32790;SDS011;19143;59.322;14.502;2023-07-16T12:34:41;4.27;;;2.30;;
32790;SDS011;19143;59.322;14.502;2023-07-16T12:37:08;6.43;;;2.03;;
32790;SDS011;19143;59.322;14.502;2023-07-16T12:39:34;5.57;;;2.10;;
32790;SDS011;19143;59.322;14.502;2023-07-16T12:42:03;4.33;;;2.00;;
32790;SDS011;19143;59.322;14.502;2023-07-16T12:44:29;5.93;;;2.40;;
32790;SDS011;19143;59.322;14.502;2023-07-16T12:47:04;3.27;;;2.17;;
32790;SDS011;19143;59.322;14.502;2023-07-16T12:49:33;8.43;;;2.63;;
32790;SDS011;19143;59.322;14.502;2023-07-16T12:52:00;3.27;;;2.20;;
32790;SDS011;19143;59.322;14.502;2023-07-16T12:54:27;4.50;;;2.27;;
32790;SDS011;19143;59.322;14.502;2023-07-16T12:56:54;4.57;;;2.10;;
32790;SDS011;19143;59.322;14.502;2023-07-16T12:59:22;3.80;;;1.90;;
32790;SDS011;19143;59.322;14.502;2023-07-16T13:01:50;7.20;;;2.10;;
32790;SDS011;19143;59.322;14.502;2023-07-16T13:04:16;4.63;;;2.20;;
32790;SDS011;19143;59.322;14.502;2023-07-16T13:06:43;3.50;;;2.10;;
32790;SDS011;19143;59.322;14.502;2023-07-16T13:09:12;9.67;;;2.57;;
32790;SDS011;19143;59.322;14.502;2023-07-16T13:11:39;7.60;;;2.40;;
32790;SDS011;19143;59.322;14.502;2023-07-16T13:14:05;2.97;;;2.27;;
32790;SDS011;19143;59.322;14.502;2023-07-16T13:16:34;3.63;;;2.40;;
32790;SDS011;19143;59.322;14.502;2023-07-16T13:19:00;7.17;;;3.47;;
32790;SDS011;19143;59.322;14.502;2023-07-16T13:21:27;10.10;;;2.70;;
32790;SDS011;19143;59.322;14.502;2023-07-16T13:23:54;5.07;;;2.50;;
32790;SDS011;19143;59.322;14.502;2023-07-16T13:26:20;7.17;;;2.60;;
32790;SDS011;19143;59.322;14.502;2023-07-16T13:28:53;5.40;;;2.30;;
32790;SDS011;19143;59.322;14.502;2023-07-16T13:31:26;9.40;;;2.57;;
32790;SDS011;19143;59.322;14.502;2023-07-16T13:33:55;5.97;;;3.00;;
32790;SDS011;19143;59.322;14.502;2023-07-16T13:36:21;7.20;;;2.97;;
32790;SDS011;19143;59.322;14.502;2023-07-16T13:38:48;5.63;;;2.93;;
32790;SDS011;19143;59.322;14.502;2023-07-16T13:41:15;9.07;;;2.93;;
32790;SDS011;19143;59.322;14.502;2023-07-16T13:43:41;5.23;;;2.77;;
32790;SDS011;19143;59.322;14.502;2023-07-16T13:46:08;7.17;;;3.20;;
32790;SDS011;19143;59.322;14.502;2023-07-16T13:48:34;5.60;;;2.93;;
32790;SDS011;19143;59.322;14.502;2023-07-16T13:51:02;7.83;;;3.20;;
32790;SDS011;19143;59.322;14.502;2023-07-16T13:53:29;6.83;;;2.90;;
32790;SDS011;19143;59.322;14.502;2023-07-16T13:55:56;8.47;;;2.77;;
32790;SDS011;19143;59.322;14.502;2023-07-16T13:58:22;5.77;;;2.83;;
32790;SDS011;19143;59.322;14.502;2023-07-16T14:00:49;8.23;;;2.67;;
32790;SDS011;19143;59.322;14.502;2023-07-16T14:03:15;7.17;;;2.90;;
32790;SDS011;19143;59.322;14.502;2023-07-16T14:05:42;7.50;;;2.80;;
32790;SDS011;19143;59.322;14.502;2023-07-16T14:08:10;6.77;;;2.90;;
32790;SDS011;19143;59.322;14.502;2023-07-16T14:10:36;4.83;;;2.77;;
32790;SDS011;19143;59.322;14.502;2023-07-16T14:13:03;8.87;;;2.80;;
32790;SDS011;19143;59.322;14.502;2023-07-16T14:15:30;7.23;;;3.03;;
32790;SDS011;19143;59.322;14.502;2023-07-16T14:17:56;4.73;;;2.57;;
32790;SDS011;19143;59.322;14.502;2023-07-16T14:20:23;9.77;;;2.90;;
32790;SDS011;19143;59.322;14.502;2023-07-16T14:22:49;4.40;;;2.53;;
32790;SDS011;19143;59.322;14.502;2023-07-16T14:25:17;4.40;;;2.63;;
32790;SDS011;19143;59.322;14.502;2023-07-16T14:27:44;5.20;;;2.77;;
32790;SDS011;19143;59.322;14.502;2023-07-16T14:30:12;8.33;;;3.07;;
32790;SDS011;19143;59.322;14.502;2023-07-16T14:32:45;9.17;;;2.90;;
32790;SDS011;19143;59.322;14.502;2023-07-16T14:35:12;7.23;;;2.77;;
32790;SDS011;19143;59.322;14.502;2023-07-16T14:37:38;7.57;;;3.30;;